Time;durP1;ratioP1;P1;durP2;ratioP2;P2;SDS_P1;SDS_P2;PMS_P1;PMS_P2;Temp;Humidity;BMP_temperature;BMP_pressure;BME280_temperature;BME280_humidity;BME280_pressure;Samples;Min_cycle;Max_cycle;Signal;HPM_P1;HPM_P2
2023/05/08 00:01:18;;;;;;;20.90;17.92;;;17.10;99.90;;;;;;6316162;22;20005;-94
2023/05/08 00:03:43;;;;;;;24.40;19.27;;;17.10;99.90;;;;;;6290063;22;20021;-93
2023/05/08 00:06:09;;;;;;;20.42;18.00;;;17.10;99.90;;;;;;6317423;22;20006;-93
2023/05/08 00:08:35;;;;;;;21.38;18.52;;;17.10;99.90;;;;;;6291124;22;20017;-94
2023/05/08 00:11:01;;;;;;;24.10;19.33;;;17.10;99.90;;;;;;6317039;22;20007;-93
2023/05/08 00:13:26;;;;;;;25.40;19.30;;;17.10;99.90;;;;;;6289778;22;20505;-92
2023/05/08 00:15:52;;;;;;;21.70;18.55;;;17.10;99.90;;;;;;6290214;22;20332;-92
2023/05/08 00:18:18;;;;;;;23.58;19.25;;;17.10;99.90;;;;;;6316388;22;20060;-94
2023/05/08 00:20:44;;;;;;;23.67;18.90;;;17.10;99.90;;;;;;6318400;22;20076;-96
2023/05/08 00:23:09;;;;;;;23.85;19.30;;;17.00;99.90;;;;;;6317469;22;20405;-93
2023/05/08 00:25:35;;;;;;;22.45;18.77;;;17.00;99.90;;;;;;6266118;22;20061;-94
2023/05/08 00:28:01;;;;;;;25.67;19.98;;;17.00;99.90;;;;;;6270594;22;20007;-93
2023/05/08 00:30:27;;;;;;;24.23;19.60;;;17.00;99.90;;;;;;6291363;22;20033;-93
2023/05/08 00:32:53;;;;;;;25.27;19.83;;;16.90;99.90;;;;;;6290942;22;20015;-95
2023/05/08 00:35:19;;;;;;;25.42;20.42;;;16.90;99.90;;;;;;6315903;22;20003;-93
2023/05/08 00:37:45;;;;;;;28.10;20.45;;;16.90;99.90;;;;;;6264909;22;20005;-94
2023/05/08 00:40:11;;;;;;;26.35;20.73;;;16.90;99.90;;;;;;6290624;22;20326;-93
2023/05/08 00:42:37;;;;;;;25.23;21.10;;;16.90;99.90;;;;;;6316717;22;20372;-94
2023/05/08 00:45:03;;;;;;;24.40;20.15;;;16.90;99.90;;;;;;6315902;22;20002;-95
2023/05/08 00:47:30;;;;;;;25.63;19.00;;;16.90;99.90;;;;;;6315762;22;20425;-93
2023/05/08 00:49:57;;;;;;;25.23;20.00;;;16.80;99.90;;;;;;6324993;22;20005;-95
2023/05/08 00:52:25;;;;;;;25.38;20.52;;;16.80;99.90;;;;;;6327502;22;20011;-96
2023/05/08 00:54:51;;;;;;;23.88;20.35;;;16.80;99.90;;;;;;6296111;22;20010;-96
2023/05/08 00:57:23;;;;;;;23.23;20.40;;;16.80;99.90;;;;;;6325942;22;19987;-96
2023/05/08 00:59:56;;;;;;;26.30;20.42;;;16.70;99.90;;;;;;6334719;22;20003;-95
2023/05/08 01:02:22;;;;;;;27.13;20.98;;;16.70;99.90;;;;;;6326042;22;20086;-94
2023/05/08 01:04:48;;;;;;;23.80;20.67;;;16.70;99.90;;;;;;6290355;22;19999;-94
2023/05/08 01:07:14;;;;;;;26.05;21.55;;;16.70;99.90;;;;;;6329136;22;20041;-95
2023/05/08 01:09:42;;;;;;;23.83;20.48;;;16.70;99.90;;;;;;6293067;22;20010;-96
2023/05/08 01:12:33;;;;;;;24.10;19.63;;;16.70;99.90;;;;;;6294181;22;20137;-96
2023/05/08 01:15:17;;;;;;;24.20;20.15;;;16.60;99.90;;;;;;6317974;22;20010;-96
2023/05/08 01:18:12;;;;;;;23.52;20.42;;;16.60;99.90;;;;;;6319792;22;19994;-95
2023/05/08 01:20:46;;;;;;;27.08;20.90;;;16.60;99.90;;;;;;6317228;22;20010;-96
2023/05/08 01:23:15;;;;;;;27.27;21.48;;;16.60;99.90;;;;;;6327895;22;20070;-96
2023/05/08 01:25:53;;;;;;;29.90;21.48;;;16.60;99.90;;;;;;6327696;22;20041;-96
2023/05/08 01:29:00;;;;;;;25.42;21.42;;;16.50;99.90;;;;;;6336206;22;20003;-96
2023/05/08 01:31:56;;;;;;;24.48;20.38;;;16.50;99.90;;;;;;6311455;22;20009;-96
2023/05/08 01:34:31;;;;;;;28.27;21.75;;;16.50;99.90;;;;;;6328254;22;20019;-96
2023/05/08 01:37:16;;;;;;;26.05;22.02;;;16.50;99.90;;;;;;6327265;22;19999;-96
2023/05/08 01:40:10;;;;;;;25.55;21.27;;;16.50;99.90;;;;;;6358896;22;19987;-96
2023/05/08 01:43:05;;;;;;;27.40;21.55;;;16.40;99.90;;;;;;6334170;22;19979;-96
2023/05/08 01:45:46;;;;;;;23.58;20.05;;;16.40;99.90;;;;;;6333070;22;20003;-93
2023/05/08 01:48:41;;;;;;;27.52;21.65;;;16.40;99.90;;;;;;6331689;22;20007;-92
2023/05/08 01:51:19;;;;;;;26.83;20.77;;;16.40;99.90;;;;;;6318864;22;20006;-94
2023/05/08 01:53:53;;;;;;;24.10;20.48;;;16.40;99.90;;;;;;6315597;22;20417;-94
2023/05/08 01:56:25;;;;;;;25.83;20.30;;;16.30;99.90;;;;;;6324793;22;19995;-95
2023/05/08 01:58:56;;;;;;;28.40;21.00;;;16.30;99.90;;;;;;6339493;22;19998;-95
2023/05/08 02:01:24;;;;;;;27.65;22.08;;;16.30;99.90;;;;;;6330845;22;20056;-95
2023/05/08 02:03:51;;;;;;;26.58;21.38;;;16.30;99.90;;;;;;6321200;22;20072;-94
2023/05/08 02:06:20;;;;;;;26.95;20.85;;;16.20;99.90;;;;;;6329200;22;20029;-96
2023/05/08 02:08:47;;;;;;;23.63;20.15;;;16.20;99.90;;;;;;6319415;22;19999;-95
2023/05/08 02:11:15;;;;;;;27.27;21.70;;;16.20;99.90;;;;;;6292603;22;20051;-95
2023/05/08 02:13:43;;;;;;;27.10;21.65;;;16.20;99.90;;;;;;6291069;22;20007;-94
2023/05/08 02:16:11;;;;;;;28.95;22.60;;;16.10;99.90;;;;;;6314834;22;20011;-95
2023/05/08 02:18:39;;;;;;;25.52;20.65;;;16.10;99.90;;;;;;6314871;22;20006;-93
2023/05/08 02:21:10;;;;;;;31.10;22.08;;;16.10;99.90;;;;;;6315127;22;20003;-93
2023/05/08 02:23:36;;;;;;;27.95;22.73;;;16.10;99.90;;;;;;6315903;22;20002;-94
2023/05/08 02:26:03;;;;;;;29.33;22.45;;;16.10;99.90;;;;;;6315288;22;20445;-92
2023/05/08 02:28:34;;;;;;;27.67;21.92;;;16.00;99.90;;;;;;6314732;22;20003;-94
2023/05/08 02:31:01;;;;;;;29.08;22.60;;;16.00;99.90;;;;;;6288604;22;20006;-95
2023/05/08 02:33:28;;;;;;;27.80;21.42;;;16.00;99.90;;;;;;6288609;22;20011;-96
2023/05/08 02:35:56;;;;;;;28.17;22.15;;;16.00;99.90;;;;;;6314176;22;20003;-95
2023/05/08 02:38:27;;;;;;;27.00;22.60;;;16.00;99.90;;;;;;6293752;22;19998;-95
2023/05/08 02:40:57;;;;;;;28.65;23.15;;;15.90;99.90;;;;;;6329395;22;20310;-96
2023/05/08 02:43:25;;;;;;;30.25;22.80;;;15.90;99.90;;;;;;6333728;22;20002;-95
2023/05/08 02:49:03;;;;;;;25.83;22.42;;;15.80;99.90;;;;;;6309544;22;20019;-91
2023/05/08 02:51:43;;;;;;;27.65;22.27;;;15.80;99.90;;;;;;6282992;22;19999;-92
2023/05/08 02:54:44;;;;;;;29.23;23.75;;;15.80;99.90;;;;;;6282762;22;20003;-92
2023/05/08 02:57:48;;;;;;;28.88;24.27;;;15.80;99.90;;;;;;6282303;22;20011;-92
2023/05/08 03:00:24;;;;;;;28.48;22.88;;;15.70;99.90;;;;;;6241187;22;20048;-91
2023/05/08 03:03:21;;;;;;;25.60;22.80;;;15.70;99.90;;;;;;6309755;22;20066;-93
2023/05/08 03:05:52;;;;;;;29.13;23.35;;;15.70;99.90;;;;;;6283111;22;20478;-91
2023/05/08 03:08:33;;;;;;;30.73;23.98;;;15.70;99.90;;;;;;6257593;22;20043;-91
2023/05/08 03:11:07;;;;;;;29.75;23.48;;;15.70;99.90;;;;;;6283126;22;19996;-93
2023/05/08 03:13:35;;;;;;;28.92;23.55;;;15.60;99.90;;;;;;6283249;22;20094;-92
2023/05/08 03:16:03;;;;;;;31.00;24.48;;;15.60;99.90;;;;;;6257472;22;20003;-94
2023/05/08 03:18:40;;;;;;;29.73;23.77;;;15.60;99.90;;;;;;6282877;22;19999;-92
2023/05/08 03:21:12;;;;;;;29.58;23.17;;;15.60;99.90;;;;;;6283115;22;20033;-93
2023/05/08 03:23:39;;;;;;;30.70;24.00;;;15.60;99.90;;;;;;6284611;22;20004;-91
2023/05/08 03:26:06;;;;;;;26.02;23.23;;;15.60;99.90;;;;;;6309295;22;20027;-92
2023/05/08 03:28:34;;;;;;;29.75;23.17;;;15.50;99.90;;;;;;6281736;22;20486;-92
2023/05/08 03:31:04;;;;;;;29.02;23.23;;;15.50;99.90;;;;;;6281938;22;19995;-91
2023/05/08 03:33:31;;;;;;;30.10;23.70;;;15.50;99.90;;;;;;6256266;22;20009;-93
2023/05/08 03:35:58;;;;;;;28.08;23.20;;;15.50;99.90;;;;;;6282219;22;20003;-91
2023/05/08 03:38:24;;;;;;;28.83;23.33;;;15.50;99.90;;;;;;6282080;22;20086;-91
2023/05/08 03:40:50;;;;;;;31.27;24.80;;;15.50;99.90;;;;;;6281934;22;19995;-92
2023/05/08 03:43:17;;;;;;;28.85;24.10;;;15.50;99.90;;;;;;6256845;22;20019;-92
2023/05/08 03:45:45;;;;;;;28.85;25.25;;;15.50;99.90;;;;;;6282271;22;20030;-91
2023/05/08 03:48:12;;;;;;;31.67;24.60;;;15.40;99.90;;;;;;6282044;22;20070;-91
2023/05/08 03:50:38;;;;;;;32.05;26.15;;;15.40;99.90;;;;;;6281850;22;20035;-90
2023/05/08 03:53:07;;;;;;;31.10;23.83;;;15.40;99.90;;;;;;6256849;22;20033;-90
2023/05/08 03:55:33;;;;;;;31.13;24.80;;;15.40;99.90;;;;;;6282958;22;20001;-91
2023/05/08 03:58:12;;;;;;;32.47;24.80;;;15.40;99.90;;;;;;6256947;22;20015;-92
2023/05/08 04:01:27;;;;;;;29.95;25.05;;;15.40;99.90;;;;;;6309191;22;19999;-93
2023/05/08 04:04:15;;;;;;;29.00;24.67;;;15.40;99.90;;;;;;6306705;22;20042;-92
2023/05/08 04:07:27;;;;;;;31.67;24.67;;;15.40;99.90;;;;;;6309732;22;19995;-93
2023/05/08 04:10:20;;;;;;;33.30;26.42;;;15.40;99.90;;;;;;6130007;23;20029;-93
2023/05/08 04:13:08;;;;;;;32.25;25.77;;;15.40;99.90;;;;;;6129886;23;20382;-92
2023/05/08 04:16:00;;;;;;;33.60;25.77;;;15.40;99.90;;;;;;6251347;22;20010;-92
2023/05/08 04:18:29;;;;;;;30.30;24.88;;;15.30;99.90;;;;;;6275894;22;20078;-91
2023/05/08 04:20:56;;;;;;;32.17;26.42;;;15.30;99.90;;;;;;6282684;22;20010;-92
2023/05/08 04:23:26;;;;;;;31.30;25.58;;;15.30;99.90;;;;;;6258277;22;20011;-91
2023/05/08 04:25:52;;;;;;;31.67;25.80;;;15.30;99.90;;;;;;6284930;22;20054;-93
2023/05/08 04:28:21;;;;;;;30.63;26.08;;;15.30;99.90;;;;;;6312360;22;20367;-91
2023/05/08 04:30:47;;;;;;;36.53;26.27;;;15.30;99.90;;;;;;6284624;22;19995;-90
2023/05/08 04:33:14;;;;;;;32.40;26.40;;;15.30;99.90;;;;;;6259036;22;20084;-92
2023/05/08 04:35:41;;;;;;;31.35;25.83;;;15.30;99.90;;;;;;6288616;22;19999;-93
2023/05/08 04:38:10;;;;;;;28.20;24.90;;;15.30;99.90;;;;;;6315892;22;20463;-92
2023/05/08 04:40:35;;;;;;;33.08;26.52;;;15.30;99.90;;;;;;6292059;22;20022;-92
2023/05/08 04:43:01;;;;;;;30.25;25.70;;;15.20;99.90;;;;;;6317827;22;20059;-90
2023/05/08 04:45:27;;;;;;;30.10;25.90;;;15.20;99.90;;;;;;6295088;22;19999;-92
2023/05/08 04:48:00;;;;;;;31.02;25.98;;;15.20;99.90;;;;;;6285260;22;20030;-91
2023/05/08 04:50:26;;;;;;;34.53;27.08;;;15.20;99.90;;;;;;6285883;22;20484;-91
2023/05/08 04:52:56;;;;;;;31.55;27.00;;;15.20;99.90;;;;;;6258709;22;20011;-92
2023/05/08 04:55:24;;;;;;;32.53;27.73;;;15.20;99.90;;;;;;6312728;22;20003;-91
2023/05/08 04:57:55;;;;;;;31.85;27.83;;;15.20;99.90;;;;;;6286281;22;19999;-91
2023/05/08 05:00:21;;;;;;;29.60;26.00;;;15.20;99.90;;;;;;6265218;22;20086;-91
2023/05/08 05:02:47;;;;;;;31.13;27.67;;;15.10;99.90;;;;;;6260585;22;20003;-85
2023/05/08 05:05:16;;;;;;;31.58;26.60;;;15.20;99.90;;;;;;6259322;22;20007;-93
2023/05/08 05:07:44;;;;;;;35.22;28.80;;;15.10;99.90;;;;;;6260609;22;20421;-93
2023/05/08 05:10:10;;;;;;;32.05;26.30;;;15.10;99.90;;;;;;6284090;22;20009;-95
2023/05/08 05:12:42;;;;;;;31.52;27.30;;;15.10;99.90;;;;;;6285669;22;19999;-94
2023/05/08 05:15:18;;;;;;;30.45;26.23;;;15.10;99.90;;;;;;6259935;22;20073;-93
2023/05/08 05:17:43;;;;;;;31.80;27.77;;;15.10;99.90;;;;;;6260807;22;20004;-94
2023/05/08 05:20:15;;;;;;;32.33;27.23;;;15.10;99.90;;;;;;6271516;22;20009;-92
2023/05/08 05:22:41;;;;;;;32.78;28.52;;;15.10;99.90;;;;;;6258650;22;20090;-93
2023/05/08 05:25:14;;;;;;;35.08;29.50;;;15.10;99.90;;;;;;6283197;22;20037;-91
2023/05/08 05:27:40;;;;;;;32.70;28.00;;;15.10;99.90;;;;;;6284143;22;20417;-92
2023/05/08 05:30:15;;;;;;;32.90;26.98;;;15.20;99.90;;;;;;6312072;22;20048;-92
2023/05/08 05:32:43;;;;;;;34.05;29.25;;;15.20;99.90;;;;;;6267604;22;20003;-93
2023/05/08 05:35:17;;;;;;;32.17;28.20;;;15.20;99.90;;;;;;6287967;22;20003;-92
2023/05/08 05:37:48;;;;;;;36.38;28.15;;;15.20;99.90;;;;;;6306357;22;19996;-90
2023/05/08 05:40:16;;;;;;;37.33;30.83;;;15.20;99.90;;;;;;6282397;22;20015;-93
2023/05/08 05:42:50;;;;;;;32.70;28.70;;;15.20;99.90;;;;;;6282638;22;19992;-92
2023/05/08 05:45:24;;;;;;;36.95;29.60;;;15.20;99.90;;;;;;6306256;22;19991;-92
2023/05/08 05:47:55;;;;;;;34.97;29.88;;;15.20;99.90;;;;;;6255123;22;20030;-93
2023/05/08 05:50:25;;;;;;;38.22;30.63;;;15.30;99.90;;;;;;6303273;22;20011;-94
2023/05/08 05:53:02;;;;;;;35.10;30.10;;;15.30;99.90;;;;;;6295926;22;20006;-94
2023/05/08 05:55:28;;;;;;;36.97;30.02;;;15.30;99.90;;;;;;6284265;22;20030;-94
2023/05/08 05:58:02;;;;;;;40.15;33.10;;;15.30;99.90;;;;;;6286584;22;20074;-93
2023/05/08 06:00:30;;;;;;;40.58;31.92;;;15.30;99.90;;;;;;6291505;22;19987;-94
2023/05/08 06:02:56;;;;;;;37.58;30.23;;;15.30;99.90;;;;;;6318704;22;20033;-93
2023/05/08 06:05:27;;;;;;;37.78;31.65;;;15.30;99.90;;;;;;6296236;22;20026;-93
2023/05/08 06:07:53;;;;;;;37.35;30.27;;;15.40;99.90;;;;;;6293115;22;19999;-91
2023/05/08 06:10:18;;;;;;;36.50;31.25;;;15.40;99.90;;;;;;6258286;22;20052;-93
2023/05/08 06:12:44;;;;;;;37.25;30.25;;;15.40;99.90;;;;;;6259502;22;20003;-92
2023/05/08 06:15:13;;;;;;;40.25;30.90;;;15.40;99.90;;;;;;6283770;22;20366;-93
2023/05/08 06:17:41;;;;;;;39.08;31.65;;;15.40;99.90;;;;;;6284446;22;20443;-94
2023/05/08 06:20:08;;;;;;;38.25;31.23;;;15.50;99.90;;;;;;6283796;22;20027;-92
2023/05/08 06:22:34;;;;;;;39.90;32.50;;;15.50;99.90;;;;;;6284003;22;19999;-91
2023/05/08 06:24:59;;;;;;;42.40;31.98;;;15.50;99.90;;;;;;6257875;22;20031;-92
2023/05/08 06:27:25;;;;;;;38.25;31.17;;;15.40;99.90;;;;;;6258899;22;20010;-94
2023/05/08 06:29:52;;;;;;;41.17;32.75;;;15.50;99.90;;;;;;6284404;22;20003;-94
2023/05/08 06:32:21;;;;;;;47.47;34.50;;;15.50;99.90;;;;;;6284010;22;20030;-93
2023/05/08 06:34:47;;;;;;;44.92;34.13;;;15.50;99.90;;;;;;6258751;22;20023;-92
2023/05/08 06:37:13;;;;;;;47.90;35.72;;;15.50;99.90;;;;;;6282512;22;20003;-94
2023/05/08 06:39:39;;;;;;;43.35;33.67;;;15.50;99.90;;;;;;6257787;22;20003;-92
2023/05/08 06:42:20;;;;;;;54.05;36.38;;;15.50;99.90;;;;;;6282158;22;20010;-95
2023/05/08 06:44:49;;;;;;;;;;;15.50;99.90;;;;;;6311063;22;20484;-92
2023/05/08 06:47:18;;;;;;;52.55;35.55;;;15.50;99.90;;;;;;6284343;22;19910;-90
2023/05/08 06:49:54;;;;;;;49.58;34.92;;;15.50;99.90;;;;;;6281230;22;20027;-93
2023/05/08 06:52:25;;;;;;;52.80;35.80;;;15.50;99.90;;;;;;6283155;22;20011;-94
2023/05/08 06:54:54;;;;;;;;;;;15.60;99.90;;;;;;6282275;22;20004;-94
2023/05/08 06:57:25;;;;;;;54.78;35.60;;;15.60;99.90;;;;;;6285720;22;19914;-95
2023/05/08 07:00:05;;;;;;;63.33;38.30;;;15.60;99.90;;;;;;6311844;22;20457;-95
2023/05/08 07:02:33;;;;;;;58.30;37.53;;;15.70;99.90;;;;;;6236344;22;20007;-94
2023/05/08 07:05:03;;;;;;;64.57;37.60;;;15.70;99.90;;;;;;6312547;22;20018;-92
2023/05/08 07:07:36;;;;;;;61.72;38.15;;;15.70;99.90;;;;;;6285896;22;20010;-93
2023/05/08 07:10:12;;;;;;;62.13;38.95;;;15.80;99.90;;;;;;6260468;22;20007;-95
2023/05/08 07:12:39;;;;;;;67.93;40.05;;;15.80;99.90;;;;;;6285849;22;19999;-94
2023/05/08 07:15:09;;;;;;;67.30;39.58;;;15.90;99.90;;;;;;6284898;22;20007;-95
2023/05/08 07:17:35;;;;;;;61.35;38.28;;;15.90;99.90;;;;;;6284333;22;19995;-95
2023/05/08 07:20:07;;;;;;;62.53;38.92;;;16.00;99.90;;;;;;6284433;22;20007;-95
2023/05/08 07:22:43;;;;;;;64.10;39.17;;;16.00;99.90;;;;;;6283244;22;20325;-95
2023/05/08 07:25:16;;;;;;;64.10;41.53;;;16.10;99.90;;;;;;6263527;22;20014;-95
2023/05/08 07:27:42;;;;;;;62.22;38.60;;;16.20;99.90;;;;;;6298986;22;19999;-94
2023/05/08 07:30:16;;;;;;;53.08;37.95;;;16.30;99.90;;;;;;6267021;22;20010;-94
2023/05/08 07:32:47;;;;;;;57.40;38.40;;;16.30;99.90;;;;;;6285870;22;20000;-91
2023/05/08 07:35:17;;;;;;;62.60;40.47;;;16.30;99.90;;;;;;6283691;22;20324;-91
2023/05/08 07:37:53;;;;;;;60.60;39.45;;;16.40;99.90;;;;;;6285358;22;20395;-95
2023/05/08 07:40:21;;;;;;;56.90;39.00;;;16.40;99.90;;;;;;6311497;22;20005;-94
2023/05/08 07:42:47;;;;;;;57.95;38.35;;;16.50;99.90;;;;;;6285006;22;20425;-93
2023/05/08 07:45:19;;;;;;;68.10;39.67;;;16.60;99.90;;;;;;6284437;22;20056;-94
2023/05/08 07:47:59;;;;;;;59.78;38.60;;;16.60;99.90;;;;;;6312327;22;20002;-93
2023/05/08 07:50:33;;;;;;;65.45;39.90;;;16.70;99.90;;;;;;6312017;22;20421;-94
2023/05/08 07:53:01;;;;;;;74.43;43.20;;;16.70;99.90;;;;;;6291108;22;20011;-93
2023/05/08 07:55:27;;;;;;;71.85;42.60;;;16.80;99.90;;;;;;6263434;22;20003;-94
2023/05/08 07:57:55;;;;;;;51.75;37.80;;;16.80;99.90;;;;;;6259920;22;20014;-94
2023/05/08 08:00:45;;;;;;;60.30;40.03;;;16.90;99.90;;;;;;6283912;22;19999;-93
2023/05/08 08:03:12;;;;;;;64.82;42.75;;;16.90;99.90;;;;;;6311907;22;20003;-92
2023/05/08 08:05:43;;;;;;;65.68;39.88;;;16.90;99.90;;;;;;6284958;22;20790;-93
2023/05/08 08:08:20;;;;;;;64.05;40.63;;;17.00;99.90;;;;;;6259889;22;20010;-95
2023/05/08 08:11:03;;;;;;;59.85;41.47;;;17.00;99.90;;;;;;6285018;22;20053;-92
2023/05/08 08:13:31;;;;;;;59.90;40.40;;;17.00;99.90;;;;;;6258111;22;20007;-93
2023/05/08 08:16:05;;;;;;;59.08;38.83;;;17.10;99.90;;;;;;6284615;22;20057;-92
2023/05/08 08:18:35;;;;;;;58.10;39.17;;;17.10;99.90;;;;;;6260576;22;20488;-91
2023/05/08 08:21:06;;;;;;;65.13;42.75;;;17.10;99.90;;;;;;6287660;22;20034;-92
2023/05/08 08:23:37;;;;;;;62.65;40.75;;;17.10;99.90;;;;;;6286053;22;20000;-94
2023/05/08 08:26:06;;;;;;;60.00;38.80;;;17.20;99.90;;;;;;6261204;22;20000;-94
2023/05/08 08:28:32;;;;;;;56.67;39.15;;;17.20;99.90;;;;;;6262502;22;20141;-93
2023/05/08 08:31:04;;;;;;;63.63;42.55;;;17.20;99.90;;;;;;6286205;22;20016;-93
2023/05/08 08:33:37;;;;;;;61.35;41.78;;;17.20;99.90;;;;;;6312221;22;20003;-93
2023/05/08 08:36:03;;;;;;;60.58;41.70;;;17.30;99.90;;;;;;6230394;22;20019;-93
2023/05/08 08:38:32;;;;;;;57.00;40.05;;;17.30;99.90;;;;;;6283064;22;20054;-94
2023/05/08 08:41:00;;;;;;;57.67;38.55;;;17.40;99.90;;;;;;6310707;22;20004;-94
2023/05/08 08:43:42;;;;;;;63.15;42.53;;;17.40;99.90;;;;;;6257587;22;20010;-93
2023/05/08 08:46:12;;;;;;;60.75;41.47;;;17.50;99.90;;;;;;6260396;22;20026;-94
2023/05/08 08:48:45;;;;;;;56.00;38.40;;;17.50;99.90;;;;;;6283953;22;20472;-94
2023/05/08 08:52:05;;;;;;;61.60;42.70;;;17.60;99.90;;;;;;6285565;22;20012;-94
2023/05/08 08:54:44;;;;;;;59.97;40.30;;;17.60;99.90;;;;;;6272017;22;20072;-93
2023/05/08 08:57:21;;;;;;;51.55;38.85;;;17.70;99.90;;;;;;6286298;22;20014;-93
2023/05/08 08:59:50;;;;;;;57.20;40.50;;;17.70;99.90;;;;;;6313809;22;20014;-93
2023/05/08 09:02:18;;;;;;;65.57;43.65;;;17.80;99.90;;;;;;6287426;22;19996;-92
2023/05/08 09:05:02;;;;;;;58.92;40.47;;;17.90;99.90;;;;;;6285954;22;20011;-95
2023/05/08 09:07:55;;;;;;;;;;;;;;;;;;;;;
2023/05/08 09:10:23;;;;;;;58.65;41.63;;;17.90;99.90;;;;;;6320036;22;20018;-94
2023/05/08 09:12:54;;;;;;;55.10;40.15;;;18.00;99.90;;;;;;6290769;22;20052;-94
2023/05/08 09:15:22;;;;;;;55.45;40.10;;;18.00;99.90;;;;;;6284266;22;20321;-93
2023/05/08 09:17:48;;;;;;;59.33;41.75;;;18.10;99.90;;;;;;6288030;22;20003;-94
2023/05/08 09:20:17;;;;;;;62.08;42.83;;;18.10;99.90;;;;;;6306375;22;20006;-95
2023/05/08 09:22:48;;;;;;;55.20;40.17;;;18.10;99.90;;;;;;6307785;22;20136;-94
2023/05/08 09:25:18;;;;;;;58.90;40.78;;;18.20;99.90;;;;;;6307988;22;20006;-92
2023/05/08 09:27:46;;;;;;;;;;;18.20;99.90;;;;;;6307182;22;20035;-92
2023/05/08 09:30:15;;;;;;;56.63;40.22;;;18.20;99.90;;;;;;6279967;22;19903;-93
2023/05/08 09:32:45;;;;;;;56.88;38.75;;;18.20;99.90;;;;;;6302081;22;19999;-93
2023/05/08 09:35:11;;;;;;;57.72;41.67;;;18.30;99.90;;;;;;6268026;22;20003;-92
2023/05/08 09:37:43;;;;;;;50.85;38.85;;;18.40;99.90;;;;;;6285356;22;19999;-95
2023/05/08 09:40:16;;;;;;;48.28;37.83;;;18.40;99.90;;;;;;6259129;22;20015;-93
2023/05/08 09:42:51;;;;;;;58.72;37.60;;;18.40;99.90;;;;;;6259357;22;20042;-92
2023/05/08 09:45:38;;;;;;;46.20;36.10;;;18.40;99.90;;;;;;6284157;22;19999;-92
2023/05/08 09:48:18;;;;;;;50.50;38.72;;;18.50;99.90;;;;;;6311397;22;19999;-93
2023/05/08 09:51:04;;;;;;;50.03;37.45;;;18.50;99.90;;;;;;6283344;22;20030;-92
2023/05/08 09:53:45;;;;;;;45.75;35.00;;;18.60;99.90;;;;;;6284769;22;20417;-94
2023/05/08 09:56:11;;;;;;;46.15;36.80;;;18.70;99.90;;;;;;6287564;22;20019;-95
2023/05/08 09:58:40;;;;;;;44.50;34.65;;;18.70;99.90;;;;;;6284816;22;20337;-94
2023/05/08 10:01:08;;;;;;;46.72;35.55;;;18.70;99.90;;;;;;6284872;22;20009;-94
2023/05/08 10:03:50;;;;;;;41.95;30.95;;;18.80;99.90;;;;;;6284197;22;20441;-95
2023/05/08 10:06:19;;;;;;;40.20;31.88;;;18.90;99.90;;;;;;6283669;22;20451;-95
2023/05/08 10:08:48;;;;;;;39.72;30.80;;;18.90;99.90;;;;;;6282910;22;20003;-93
2023/05/08 10:11:37;;;;;;;;;;;;;;;;;;;;;
2023/05/08 10:14:03;;;;;;;48.05;35.92;;;19.00;99.90;;;;;;6311317;22;20074;-94
2023/05/08 10:16:41;;;;;;;46.95;37.35;;;19.00;99.90;;;;;;6283345;22;20030;-93
2023/05/08 10:19:21;;;;;;;49.53;39.33;;;19.10;99.90;;;;;;6283277;22;19995;-95
2023/05/08 10:21:55;;;;;;;45.65;38.13;;;19.10;99.90;;;;;;6283213;22;20014;-95
2023/05/08 10:24:28;;;;;;;47.25;38.47;;;19.20;99.90;;;;;;6283524;22;20433;-93
2023/05/08 10:27:17;;;;;;;47.22;38.40;;;19.20;99.90;;;;;;6284392;22;20003;-93
2023/05/08 10:30:02;;;;;;;40.17;32.95;;;19.20;99.90;;;;;;6285431;22;19999;-94
2023/05/08 10:32:39;;;;;;;42.85;34.42;;;19.30;99.90;;;;;;6286468;22;20030;-91
2023/05/08 10:35:15;;;;;;;40.42;33.33;;;19.30;99.90;;;;;;6288283;22;20037;-93
2023/05/08 10:37:48;;;;;;;41.22;36.78;;;19.30;99.90;;;;;;6283312;22;20003;-93
2023/05/08 10:40:19;;;;;;;43.08;38.47;;;19.30;99.90;;;;;;6285332;22;20035;-93
2023/05/08 10:42:46;;;;;;;41.85;37.42;;;19.30;99.90;;;;;;6284111;22;20003;-93
2023/05/08 10:45:15;;;;;;;41.67;37.28;;;19.30;99.90;;;;;;6283431;22;19999;-93
2023/05/08 10:48:18;;;;;;;44.05;37.65;;;19.40;99.90;;;;;;6284419;22;19995;-94
2023/05/08 10:51:29;;;;;;;43.45;38.67;;;19.30;99.90;;;;;;6281043;22;20022;-92
2023/05/08 10:54:07;;;;;;;42.28;37.72;;;19.30;99.90;;;;;;6130860;23;20013;-90
2023/05/08 10:56:41;;;;;;;42.25;37.78;;;19.30;99.90;;;;;;6263562;22;20003;-90
2023/05/08 10:59:19;;;;;;;44.53;39.20;;;19.30;99.90;;;;;;6259415;22;20014;-91
2023/05/08 11:01:48;;;;;;;44.08;39.33;;;19.30;99.90;;;;;;6280666;22;20003;-90
2023/05/08 11:04:23;;;;;;;42.85;38.25;;;19.30;99.90;;;;;;6307233;22;20007;-91
2023/05/08 11:06:53;;;;;;;44.92;39.70;;;19.30;99.90;;;;;;6256461;22;20053;-93
2023/05/08 11:09:29;;;;;;;47.03;40.55;;;19.20;99.90;;;;;;6282944;22;19999;-92
2023/05/08 11:12:18;;;;;;;47.40;40.83;;;19.20;99.90;;;;;;6285145;22;19995;-94
2023/05/08 11:15:15;;;;;;;47.05;42.03;;;19.20;99.90;;;;;;6312482;22;19999;-93
2023/05/08 11:17:59;;;;;;;45.25;40.38;;;19.20;99.90;;;;;;6310775;22;20074;-94
2023/05/08 11:20:38;;;;;;;48.33;42.70;;;19.20;99.90;;;;;;6283731;22;20100;-92
2023/05/08 11:23:24;;;;;;;49.10;43.72;;;19.30;99.90;;;;;;6283194;22;20003;-95
2023/05/08 11:26:02;;;;;;;51.42;42.97;;;19.30;99.90;;;;;;6283564;22;19995;-92
2023/05/08 11:28:51;;;;;;;47.03;41.50;;;19.30;99.90;;;;;;6282731;22;20039;-94
2023/05/08 11:31:20;;;;;;;50.72;45.15;;;19.40;99.90;;;;;;6289425;22;20007;-91
2023/05/08 11:33:46;;;;;;;49.58;44.35;;;19.40;99.90;;;;;;6233372;22;20007;-93
2023/05/08 11:36:19;;;;;;;52.10;46.30;;;19.40;99.90;;;;;;6285116;22;20007;-94
2023/05/08 11:39:07;;;;;;;51.25;45.70;;;19.50;99.90;;;;;;6263330;22;20035;-91
2023/05/08 11:41:33;;;;;;;53.22;47.35;;;19.50;99.90;;;;;;6296472;22;20003;-89
2023/05/08 11:44:01;;;;;;;50.95;45.55;;;19.60;99.90;;;;;;6315435;22;20010;-93
2023/05/08 11:46:39;;;;;;;50.40;45.00;;;19.60;99.90;;;;;;6286844;22;20045;-93
2023/05/08 11:49:10;;;;;;;51.42;45.85;;;19.60;99.90;;;;;;6285478;22;20022;-93
2023/05/08 11:51:37;;;;;;;49.08;43.92;;;19.60;99.90;;;;;;6286095;22;20011;-93
2023/05/08 11:54:06;;;;;;;50.05;44.88;;;19.60;99.90;;;;;;6260972;22;20015;-93
2023/05/08 11:56:35;;;;;;;47.08;42.20;;;19.60;99.90;;;;;;6285352;22;20160;-92
2023/05/08 11:59:10;;;;;;;47.90;42.35;;;19.70;99.90;;;;;;6285565;22;20362;-93
2023/05/08 12:01:36;;;;;;;49.17;43.78;;;19.70;99.90;;;;;;6286511;22;19999;-92
2023/05/08 12:04:06;;;;;;;49.38;44.17;;;19.80;99.90;;;;;;6261044;22;20003;-94
2023/05/08 12:06:37;;;;;;;45.75;41.08;;;19.80;99.90;;;;;;6286973;22;20074;-92
2023/05/08 12:09:09;;;;;;;47.35;42.22;;;19.90;99.90;;;;;;6316274;22;20021;-94
2023/05/08 12:11:40;;;;;;;46.45;41.70;;;19.80;99.90;;;;;;6286532;22;20401;-94
2023/05/08 12:14:05;;;;;;;;;;;19.80;99.90;;;;;;6286731;22;20026;-93
2023/05/08 12:16:36;;;;;;;42.60;37.92;;;19.80;99.90;;;;;;6286133;22;20293;-92
2023/05/08 12:19:02;;;;;;;44.47;39.38;;;19.80;99.90;;;;;;6286982;22;20057;-93
2023/05/08 12:21:28;;;;;;;42.72;38.42;;;19.90;99.90;;;;;;6287073;22;19996;-94
2023/05/08 12:23:55;;;;;;;43.22;39.00;;;19.90;99.90;;;;;;6293149;22;20003;-92
2023/05/08 12:26:21;;;;;;;43.97;39.45;;;19.80;99.90;;;;;;6291722;22;20004;-91
2023/05/08 12:28:54;;;;;;;44.25;39.53;;;19.90;99.90;;;;;;6260646;22;20003;-92
2023/05/08 12:31:20;;;;;;;47.40;42.38;;;19.90;99.90;;;;;;6286150;22;19995;-93
2023/05/08 12:33:49;;;;;;;45.17;40.63;;;19.90;99.90;;;;;;6286414;22;20007;-93
2023/05/08 12:36:15;;;;;;;46.60;41.90;;;19.90;99.90;;;;;;6288028;22;20011;-92
2023/05/08 12:38:41;;;;;;;47.13;42.33;;;19.90;99.90;;;;;;6288121;22;19995;-94
2023/05/08 12:41:14;;;;;;;48.90;43.90;;;19.90;99.90;;;;;;6288692;22;20123;-92
2023/05/08 12:43:40;;;;;;;49.83;44.33;;;19.90;99.90;;;;;;6288533;22;20003;-92
2023/05/08 12:46:11;;;;;;;50.80;45.55;;;19.90;99.90;;;;;;6292213;22;20018;-91
2023/05/08 12:48:37;;;;;;;47.60;42.67;;;19.90;99.90;;;;;;6296313;22;20328;-92
2023/05/08 12:51:07;;;;;;;48.35;43.22;;;20.00;99.90;;;;;;6285176;22;20039;-95
2023/05/08 12:53:32;;;;;;;46.07;41.13;;;20.00;99.90;;;;;;6312244;22;20025;-93
2023/05/08 12:56:03;;;;;;;47.97;42.97;;;20.00;99.90;;;;;;6285168;22;20007;-94
2023/05/08 12:58:33;;;;;;;44.72;40.08;;;20.00;99.90;;;;;;6285317;22;20329;-91
2023/05/08 13:01:15;;;;;;;45.03;40.58;;;20.10;99.90;;;;;;6285661;22;20003;-92